Taouey — ZCAY9 — position and weather

sailwx.info

Track history (hours):
 
Tides and Currents Weather Stations Pressure Air Temp Water Temp Dewpoint Dewpoint Depression Visibility Wind Speed Wind Dir Waves Ship Positions

Taouey

Last reported at 2015-Sep-01 19:34 UTC. Time now 2015-Sep-01 20:21 UTC.
Position N 43°16' E 006°37'.

Length 58 m; draft 4 m.

MMSI: 310079000.

Date/timePositionNaut miles runAvg speedWind from/ knotsBaromVisibWave heightAir tempDewpointWater temp
2015-Sep-01 19:34N 43°16' E 006°37'0 0.0
2015-Sep-01 18:33N 43°16' E 006°37'0 0.0
2015-Sep-01 17:33N 43°16' E 006°37'0 0.1
2015-Sep-01 16:33N 43°16' E 006°37'0 0.0
2015-Sep-01 15:33N 43°16' E 006°37'0 0.0
2015-Sep-01 14:33N 43°16' E 006°37'0 0.0
2015-Sep-01 13:33N 43°16' E 006°37'1 0.7
2015-Sep-01 12:32N 43°17' E 006°37'0 0.0
2015-Sep-01 11:33N 43°17' E 006°37'0 0.0
2015-Sep-01 10:32N 43°17' E 006°37'0 0.0
2015-Sep-01 09:34N 43°17' E 006°37'0 0.0
2015-Sep-01 08:33N 43°17' E 006°37'0 0.0
2015-Sep-01 07:33N 43°17' E 006°37'0 0.0
2015-Sep-01 06:33N 43°17' E 006°37'0 0.1
2015-Sep-01 05:34N 43°17' E 006°37'0 0.0
2015-Sep-01 04:33N 43°17' E 006°37'0 0.0
2015-Sep-01 03:33N 43°17' E 006°37'0 0.0
2015-Sep-01 02:33N 43°17' E 006°37'0 0.0
2015-Sep-01 01:33N 43°17' E 006°37'0 0.0
2015-Sep-01 00:34N 43°17' E 006°37'0 0.0
2015-Aug-31 23:33N 43°17' E 006°37'0 0.0
2015-Aug-31 22:33N 43°17' E 006°37'0 0.0
2015-Aug-31 21:33N 43°17' E 006°37'0 0.0
2015-Aug-31 20:33N 43°17' E 006°37'0 0.0
2015-Aug-31 19:33N 43°17' E 006°37'0 0.0
2015-Aug-31 18:33N 43°17' E 006°37'0 0.0
2015-Aug-31 17:33N 43°17' E 006°37'0 0.0
2015-Aug-31 16:33N 43°17' E 006°37'0 0.0
2015-Aug-31 15:33N 43°17' E 006°37'5 4.6
2015-Aug-31 14:33N 43°15' E 006°42'3 2.7
2015-Aug-31 13:33N 43°12' E 006°41'0 0.0
2015-Aug-31 12:30N 43°12' E 006°41'0 0.0
2015-Aug-31 11:33N 43°12' E 006°41'0 0.5
2015-Aug-31 10:33N 43°13' E 006°40'5 5.0
2015-Aug-31 09:33N 43°17' E 006°37'0 0.0
2015-Aug-31 08:33N 43°17' E 006°37'0 0.1
2015-Aug-31 07:33N 43°17' E 006°37'0 0.0
2015-Aug-31 06:33N 43°17' E 006°37'0 0.0
2015-Aug-31 05:33N 43°17' E 006°37'0 0.0
2015-Aug-31 04:33N 43°17' E 006°37'0 0.0
2015-Aug-31 03:33N 43°17' E 006°37'0 0.0
2015-Aug-31 02:33N 43°17' E 006°37'0 0.0
2015-Aug-31 01:33N 43°17' E 006°37'0 0.0
2015-Aug-31 00:34N 43°17' E 006°37'0 0.0
2015-Aug-30 23:33N 43°17' E 006°37'0 0.0
2015-Aug-30 22:33N 43°17' E 006°37'0 0.0
2015-Aug-30 21:33N 43°17' E 006°37'0 0.0
2015-Aug-30 20:33N 43°17' E 006°37'0 0.0
2015-Aug-30 19:33N 43°17' E 006°37'0 0.0
2015-Aug-30 18:33N 43°17' E 006°37'0 0.0
2015-Aug-30 17:33N 43°17' E 006°37'0 0.0
2015-Aug-30 16:33N 43°17' E 006°37'0 0.0
2015-Aug-30 15:33N 43°17' E 006°37'0 0.0
2015-Aug-30 14:33N 43°17' E 006°37'0 0.0
2015-Aug-30 13:33N 43°17' E 006°37'0 0.0
2015-Aug-30 12:33N 43°17' E 006°37'0 0.0
2015-Aug-30 11:33N 43°17' E 006°37'4 4.1
2015-Aug-30 10:33N 43°19' E 006°42'1212.3
2015-Aug-30 09:33N 43°26' E 006°56'1312.9
2015-Aug-30 08:33N 43°33' E 007°10'1312.9
2015-Aug-30 07:33N 43°42' E 007°23'  
2015-Aug-27 13:04N 43°44' E 007°26'0 0.0
2015-Aug-27 12:30N 43°44' E 007°26'0 0.0
2015-Aug-27 11:32N 43°44' E 007°26'1 0.7
2015-Aug-27 10:33N 43°44' E 007°26'5 4.7
2015-Aug-27 09:32N 43°40' E 007°27'1010.3
2015-Aug-27 08:34N 43°30' E 007°33'1010.4
2015-Aug-27 07:33N 43°21' E 007°39'1510.8
2015-Aug-27 06:10N 43°07' E 007°47'812.5
2015-Aug-27 05:33N 42°60' E 007°50'  
Track history (hours):
 
Tides and Currents Weather Stations Pressure Air Temp Water Temp Dewpoint Dewpoint Depression Visibility Wind Speed Wind Dir Waves Ship Positions

Taouey

Last reported at 2015-Sep-01 19:34 UTC. Time now 2015-Sep-01 20:21 UTC.
Position N 43°16' E 006°37'.

Length 58 m; draft 4 m.

MMSI: 310079000.

Date/timePositionNaut miles runAvg speedWind from/ knotsBaromVisibWave heightAir tempDewpointWater temp
2015-Sep-01 19:34N 43°16' E 006°37'0 0.0
2015-Sep-01 18:33N 43°16' E 006°37'0 0.0
2015-Sep-01 17:33N 43°16' E 006°37'0 0.1
2015-Sep-01 16:33N 43°16' E 006°37'0 0.0
2015-Sep-01 15:33N 43°16' E 006°37'0 0.0
2015-Sep-01 14:33N 43°16' E 006°37'0 0.0
2015-Sep-01 13:33N 43°16' E 006°37'1 0.7
2015-Sep-01 12:32N 43°17' E 006°37'0 0.0
2015-Sep-01 11:33N 43°17' E 006°37'0 0.0
2015-Sep-01 10:32N 43°17' E 006°37'0 0.0
2015-Sep-01 09:34N 43°17' E 006°37'0 0.0
2015-Sep-01 08:33N 43°17' E 006°37'0 0.0
2015-Sep-01 07:33N 43°17' E 006°37'0 0.0
2015-Sep-01 06:33N 43°17' E 006°37'0 0.1
2015-Sep-01 05:34N 43°17' E 006°37'0 0.0
2015-Sep-01 04:33N 43°17' E 006°37'0 0.0
2015-Sep-01 03:33N 43°17' E 006°37'0 0.0
2015-Sep-01 02:33N 43°17' E 006°37'0 0.0
2015-Sep-01 01:33N 43°17' E 006°37'0 0.0
2015-Sep-01 00:34N 43°17' E 006°37'0 0.0
2015-Aug-31 23:33N 43°17' E 006°37'0 0.0
2015-Aug-31 22:33N 43°17' E 006°37'0 0.0
2015-Aug-31 21:33N 43°17' E 006°37'0 0.0
2015-Aug-31 20:33N 43°17' E 006°37'0 0.0
2015-Aug-31 19:33N 43°17' E 006°37'0 0.0
2015-Aug-31 18:33N 43°17' E 006°37'0 0.0
2015-Aug-31 17:33N 43°17' E 006°37'0 0.0
2015-Aug-31 16:33N 43°17' E 006°37'0 0.0
2015-Aug-31 15:33N 43°17' E 006°37'5 4.6
2015-Aug-31 14:33N 43°15' E 006°42'3 2.7
2015-Aug-31 13:33N 43°12' E 006°41'0 0.0
2015-Aug-31 12:30N 43°12' E 006°41'0 0.0
2015-Aug-31 11:33N 43°12' E 006°41'0 0.5
2015-Aug-31 10:33N 43°13' E 006°40'5 5.0
2015-Aug-31 09:33N 43°17' E 006°37'0 0.0
2015-Aug-31 08:33N 43°17' E 006°37'0 0.1
2015-Aug-31 07:33N 43°17' E 006°37'0 0.0
2015-Aug-31 06:33N 43°17' E 006°37'0 0.0
2015-Aug-31 05:33N 43°17' E 006°37'0 0.0
2015-Aug-31 04:33N 43°17' E 006°37'0 0.0
2015-Aug-31 03:33N 43°17' E 006°37'0 0.0
2015-Aug-31 02:33N 43°17' E 006°37'0 0.0
2015-Aug-31 01:33N 43°17' E 006°37'0 0.0
2015-Aug-31 00:34N 43°17' E 006°37'0 0.0
2015-Aug-30 23:33N 43°17' E 006°37'0 0.0
2015-Aug-30 22:33N 43°17' E 006°37'0 0.0
2015-Aug-30 21:33N 43°17' E 006°37'0 0.0
2015-Aug-30 20:33N 43°17' E 006°37'0 0.0
2015-Aug-30 19:33N 43°17' E 006°37'0 0.0
2015-Aug-30 18:33N 43°17' E 006°37'0 0.0
2015-Aug-30 17:33N 43°17' E 006°37'0 0.0
2015-Aug-30 16:33N 43°17' E 006°37'0 0.0
2015-Aug-30 15:33N 43°17' E 006°37'0 0.0
2015-Aug-30 14:33N 43°17' E 006°37'0 0.0
2015-Aug-30 13:33N 43°17' E 006°37'0 0.0
2015-Aug-30 12:33N 43°17' E 006°37'0 0.0
2015-Aug-30 11:33N 43°17' E 006°37'4 4.1
2015-Aug-30 10:33N 43°19' E 006°42'1212.3
2015-Aug-30 09:33N 43°26' E 006°56'1312.9
2015-Aug-30 08:33N 43°33' E 007°10'1312.9
2015-Aug-30 07:33N 43°42' E 007°23'  
2015-Aug-27 13:04N 43°44' E 007°26'0 0.0
2015-Aug-27 12:30N 43°44' E 007°26'0 0.0
2015-Aug-27 11:32N 43°44' E 007°26'1 0.7
2015-Aug-27 10:33N 43°44' E 007°26'5 4.7
2015-Aug-27 09:32N 43°40' E 007°27'1010.3
2015-Aug-27 08:34N 43°30' E 007°33'1010.4
2015-Aug-27 07:33N 43°21' E 007°39'1510.8
2015-Aug-27 06:10N 43°07' E 007°47'812.5
2015-Aug-27 05:33N 42°60' E 007°50'  

Dump ship's entire track history